Main page
METAR-TAF:

METAR-TAF

Airports :

Valencia Airport

Valencia, Spain

latitude: 39-30N, longitude: 000-28W, elevation: 69 m

Current weather observation

The report was made 31 minutes ago, at 21:30 UTC
Wind 8 kt from the West/Southwest
Temperature 9°C
Humidity 81%
Pressure 1022 hPa
Visibility 10 km or more
no clouds below 1500 m and no cumulonimbus

METAR: LEVC 102130Z 25008KT CAVOK 09/06 Q1022 NOSIG

Time: 23:01 (22:01 UTC)

Forecast

The report was made 5 hours and 1 minutes ago, at 17:00 UTC
Forecast valid from 10 at 18 UTC to 11 at 18 UTC
Wind 6 kt from the West
Visibility 10 km or more
no clouds below 1500 m and no cumulonimbus
Becoming
from 11 at 10 UTC to 11 at 12 UTC
Wind 15 kt from the West/Southwest

TAF: LEVC 101700Z 1018/1118 27006KT CAVOK TX19/1113Z TN05/1106Z BECMG 1110/1112 25015KT

Weather observations and forecasts of more than 4000 airports (METAR and TAF reports).

The available stations are represented by yellow and red dots on the map.

Hover mouse over dot to see the name of the station.

Then click to see weather observations and forecasts.

To change the map : click on the green buttons with a black cross to zoom in, on the green button with a dash to zoom out, or on the green arrows for adjacent maps.


METAR-TAF: